sensor_id;sensor_type;location;lat;lon;timestamp;temperature;humidity
9403;DHT22;4741;49.834;10.740;2022-09-03T00:00:57;11.40;99.90
9403;DHT22;4741;49.834;10.740;2022-09-03T00:03:38;11.90;99.90
9403;DHT22;4741;49.834;10.740;2022-09-03T00:08:47;11.10;99.90
9403;DHT22;4741;49.834;10.740;2022-09-03T00:14:03;10.80;99.90
9403;DHT22;4741;49.834;10.740;2022-09-03T00:19:07;10.50;99.90
9403;DHT22;4741;49.834;10.740;2022-09-03T00:22:08;10.20;99.90
9403;DHT22;4741;49.834;10.740;2022-09-03T00:24:28;10.20;99.90
9403;DHT22;4741;49.834;10.740;2022-09-03T00:26:59;10.50;99.90
9403;DHT22;4741;49.834;10.740;2022-09-03T00:35:05;10.70;99.90
9403;DHT22;4741;49.834;10.740;2022-09-03T00:37:34;10.80;99.90
9403;DHT22;4741;49.834;10.740;2022-09-03T00:40:04;10.70;99.90
9403;DHT22;4741;49.834;10.740;2022-09-03T00:42:47;10.70;99.90
9403;DHT22;4741;49.834;10.740;2022-09-03T00:45:33;10.70;99.90
9403;DHT22;4741;49.834;10.740;2022-09-03T00:56:06;10.50;99.90
9403;DHT22;4741;49.834;10.740;2022-09-03T00:58:48;10.60;99.90
9403;DHT22;4741;49.834;10.740;2022-09-03T01:01:23;10.60;99.90
9403;DHT22;4741;49.834;10.740;2022-09-03T01:04:05;11.00;99.90
9403;DHT22;4741;49.834;10.740;2022-09-03T01:06:43;10.40;99.90
9403;DHT22;4741;49.834;10.740;2022-09-03T01:12:17;10.40;99.90
9403;DHT22;4741;49.834;10.740;2022-09-03T01:15:02;10.60;99.90
9403;DHT22;4741;49.834;10.740;2022-09-03T01:17:35;10.50;99.90
9403;DHT22;4741;49.834;10.740;2022-09-03T01:27:48;10.30;99.90
9403;DHT22;4741;49.834;10.740;2022-09-03T01:30:18;10.30;99.90
9403;DHT22;4741;49.834;10.740;2022-09-03T01:35:18;10.40;99.90
9403;DHT22;4741;49.834;10.740;2022-09-03T01:40:48;10.40;99.90
9403;DHT22;4741;49.834;10.740;2022-09-03T01:43:29;10.40;99.90
9403;DHT22;4741;49.834;10.740;2022-09-03T01:46:16;10.40;99.90
9403;DHT22;4741;49.834;10.740;2022-09-03T02:01:32;10.30;99.90
9403;DHT22;4741;49.834;10.740;2022-09-03T02:03:59;10.10;99.90
9403;DHT22;4741;49.834;10.740;2022-09-03T02:06:26;10.60;99.90
9403;DHT22;4741;49.834;10.740;2022-09-03T02:08:53;10.10;99.90
9403;DHT22;4741;49.834;10.740;2022-09-03T02:11:19;10.00;99.90
9403;DHT22;4741;49.834;10.740;2022-09-03T02:23:37;9.50;99.90
9403;DHT22;4741;49.834;10.740;2022-09-03T02:26:04;10.30;99.90
9403;DHT22;4741;49.834;10.740;2022-09-03T02:28:32;9.80;99.90
9403;DHT22;4741;49.834;10.740;2022-09-03T02:30:59;9.80;99.90
9403;DHT22;4741;49.834;10.740;2022-09-03T02:33:26;10.50;99.90
9403;DHT22;4741;49.834;10.740;2022-09-03T02:35:53;9.80;99.90
9403;DHT22;4741;49.834;10.740;2022-09-03T02:38:22;10.30;99.90
9403;DHT22;4741;49.834;10.740;2022-09-03T02:40:51;9.80;99.90
9403;DHT22;4741;49.834;10.740;2022-09-03T02:43:25;9.60;99.90
9403;DHT22;4741;49.834;10.740;2022-09-03T02:48:21;9.10;99.90
9403;DHT22;4741;49.834;10.740;2022-09-03T02:50:48;9.00;99.90
9403;DHT22;4741;49.834;10.740;2022-09-03T02:53:15;8.90;99.90
9403;DHT22;4741;49.834;10.740;2022-09-03T02:55:42;9.10;99.90
9403;DHT22;4741;49.834;10.740;2022-09-03T02:58:09;8.10;99.90
9403;DHT22;4741;49.834;10.740;2022-09-03T03:00:36;8.70;99.90
9403;DHT22;4741;49.834;10.740;2022-09-03T03:03:03;9.60;99.90
9403;DHT22;4741;49.834;10.740;2022-09-03T03:05:43;8.80;99.90
9403;DHT22;4741;49.834;10.740;2022-09-03T03:08:10;9.10;99.90
9403;DHT22;4741;49.834;10.740;2022-09-03T03:10:41;9.20;99.90
9403;DHT22;4741;49.834;10.740;2022-09-03T03:13:10;9.20;99.90
9403;DHT22;4741;49.834;10.740;2022-09-03T03:15:37;9.40;99.90
9403;DHT22;4741;49.834;10.740;2022-09-03T03:18:04;9.40;99.90
9403;DHT22;4741;49.834;10.740;2022-09-03T03:20:31;9.30;99.90
9403;DHT22;4741;49.834;10.740;2022-09-03T03:23:00;9.30;99.90
9403;DHT22;4741;49.834;10.740;2022-09-03T03:25:27;9.20;99.90
9403;DHT22;4741;49.834;10.740;2022-09-03T03:27:54;9.00;99.90
9403;DHT22;4741;49.834;10.740;2022-09-03T03:30:22;9.00;99.90
9403;DHT22;4741;49.834;10.740;2022-09-03T03:32:51;8.80;99.90
9403;DHT22;4741;49.834;10.740;2022-09-03T03:35:18;8.80;99.90
9403;DHT22;4741;49.834;10.740;2022-09-03T03:37:45;8.80;99.90
9403;DHT22;4741;49.834;10.740;2022-09-03T03:40:12;9.90;99.90
9403;DHT22;4741;49.834;10.740;2022-09-03T03:42:39;9.00;99.90
9403;DHT22;4741;49.834;10.740;2022-09-03T03:45:06;9.10;99.90
9403;DHT22;4741;49.834;10.740;2022-09-03T03:47:32;9.10;99.90
9403;DHT22;4741;49.834;10.740;2022-09-03T03:49:59;9.00;99.90
9403;DHT22;4741;49.834;10.740;2022-09-03T03:52:26;9.10;99.90
9403;DHT22;4741;49.834;10.740;2022-09-03T03:54:53;9.10;99.90
9403;DHT22;4741;49.834;10.740;2022-09-03T03:57:20;9.00;99.90
9403;DHT22;4741;49.834;10.740;2022-09-03T03:59:48;9.80;99.90
9403;DHT22;4741;49.834;10.740;2022-09-03T04:02:15;9.20;99.90
9403;DHT22;4741;49.834;10.740;2022-09-03T04:04:42;9.20;99.90
9403;DHT22;4741;49.834;10.740;2022-09-03T04:07:09;9.50;99.90
9403;DHT22;4741;49.834;10.740;2022-09-03T04:09:36;9.20;99.90
9403;DHT22;4741;49.834;10.740;2022-09-03T04:12:03;9.20;99.90
9403;DHT22;4741;49.834;10.740;2022-09-03T04:14:34;9.20;99.90
9403;DHT22;4741;49.834;10.740;2022-09-03T04:17:01;9.10;99.90
9403;DHT22;4741;49.834;10.740;2022-09-03T04:19:28;9.20;99.90
9403;DHT22;4741;49.834;10.740;2022-09-03T04:21:55;9.60;99.90
9403;DHT22;4741;49.834;10.740;2022-09-03T04:24:22;9.00;99.90
9403;DHT22;4741;49.834;10.740;2022-09-03T04:26:49;9.80;99.90
9403;DHT22;4741;49.834;10.740;2022-09-03T04:29:16;9.00;99.90
9403;DHT22;4741;49.834;10.740;2022-09-03T04:31:43;9.10;99.90
9403;DHT22;4741;49.834;10.740;2022-09-03T04:34:30;9.00;99.90
9403;DHT22;4741;49.834;10.740;2022-09-03T04:36:57;9.70;99.90
9403;DHT22;4741;49.834;10.740;2022-09-03T04:39:26;9.80;99.90
9403;DHT22;4741;49.834;10.740;2022-09-03T04:41:53;9.00;99.90
9403;DHT22;4741;49.834;10.740;2022-09-03T04:44:20;9.50;99.90
9403;DHT22;4741;49.834;10.740;2022-09-03T04:46:47;9.50;99.90
9403;DHT22;4741;49.834;10.740;2022-09-03T04:49:13;9.50;99.90
9403;DHT22;4741;49.834;10.740;2022-09-03T04:51:40;9.60;99.90
9403;DHT22;4741;49.834;10.740;2022-09-03T04:54:07;8.70;99.90
9403;DHT22;4741;49.834;10.740;2022-09-03T04:56:37;9.60;99.90
9403;DHT22;4741;49.834;10.740;2022-09-03T04:59:04;8.80;99.90
9403;DHT22;4741;49.834;10.740;2022-09-03T05:01:32;8.90;99.90
9403;DHT22;4741;49.834;10.740;2022-09-03T05:03:59;9.00;99.90
9403;DHT22;4741;49.834;10.740;2022-09-03T05:06:27;9.00;99.90
9403;DHT22;4741;49.834;10.740;2022-09-03T05:08:54;9.00;99.90
9403;DHT22;4741;49.834;10.740;2022-09-03T05:11:21;8.90;99.90
9403;DHT22;4741;49.834;10.740;2022-09-03T05:13:48;8.80;99.90
9403;DHT22;4741;49.834;10.740;2022-09-03T05:16:16;8.80;99.90
9403;DHT22;4741;49.834;10.740;2022-09-03T05:18:43;8.80;99.90
9403;DHT22;4741;49.834;10.740;2022-09-03T05:21:11;8.70;99.90
9403;DHT22;4741;49.834;10.740;2022-09-03T05:23:38;8.80;99.90
9403;DHT22;4741;49.834;10.740;2022-09-03T05:26:06;8.80;99.90
9403;DHT22;4741;49.834;10.740;2022-09-03T05:28:37;8.90;99.90
9403;DHT22;4741;49.834;10.740;2022-09-03T05:31:05;8.90;99.90
9403;DHT22;4741;49.834;10.740;2022-09-03T05:33:33;9.10;99.90
9403;DHT22;4741;49.834;10.740;2022-09-03T05:36:01;9.30;99.90
9403;DHT22;4741;49.834;10.740;2022-09-03T05:38:30;9.40;99.90
9403;DHT22;4741;49.834;10.740;2022-09-03T05:40:58;9.40;99.90
9403;DHT22;4741;49.834;10.740;2022-09-03T05:43:27;9.40;99.90
9403;DHT22;4741;49.834;10.740;2022-09-03T05:46:03;9.30;99.90
9403;DHT22;4741;49.834;10.740;2022-09-03T05:48:32;9.30;99.90
9403;DHT22;4741;49.834;10.740;2022-09-03T06:03:21;10.20;99.90
9403;DHT22;4741;49.834;10.740;2022-09-03T06:05:56;10.80;99.90
9403;DHT22;4741;49.834;10.740;2022-09-03T06:08:23;10.90;99.90
9403;DHT22;4741;49.834;10.740;2022-09-03T06:10:56;11.50;99.90
9403;DHT22;4741;49.834;10.740;2022-09-03T06:13:23;12.20;99.90
9403;DHT22;4741;49.834;10.740;2022-09-03T06:15:54;11.30;99.90
9403;DHT22;4741;49.834;10.740;2022-09-03T06:20:58;11.30;99.90
9403;DHT22;4741;49.834;10.740;2022-09-03T06:23:26;11.40;99.90
9403;DHT22;4741;49.834;10.740;2022-09-03T06:26:03;11.40;99.90
9403;DHT22;4741;49.834;10.740;2022-09-03T06:28:31;11.60;99.90
9403;DHT22;4741;49.834;10.740;2022-09-03T06:33:28;12.20;99.90
9403;DHT22;4741;49.834;10.740;2022-09-03T06:38:27;12.40;99.90
9403;DHT22;4741;49.834;10.740;2022-09-03T06:40:55;13.40;99.90
9403;DHT22;4741;49.834;10.740;2022-09-03T06:43:22;13.40;99.90
9403;DHT22;4741;49.834;10.740;2022-09-03T06:45:56;13.70;99.90
9403;DHT22;4741;49.834;10.740;2022-09-03T06:48:23;13.10;99.90
9403;DHT22;4741;49.834;10.740;2022-09-03T06:50:54;13.50;99.90
9403;DHT22;4741;49.834;10.740;2022-09-03T06:55:54;13.70;99.90
9403;DHT22;4741;49.834;10.740;2022-09-03T06:58:21;14.10;99.90
9403;DHT22;4741;49.834;10.740;2022-09-03T07:00:48;14.50;99.90
9403;DHT22;4741;49.834;10.740;2022-09-03T07:03:18;14.50;99.90
9403;DHT22;4741;49.834;10.740;2022-09-03T07:05:46;15.80;99.90
9403;DHT22;4741;49.834;10.740;2022-09-03T07:08:12;15.60;99.90
9403;DHT22;4741;49.834;10.740;2022-09-03T07:10:39;15.00;99.90
9403;DHT22;4741;49.834;10.740;2022-09-03T07:13:06;15.30;99.90
9403;DHT22;4741;49.834;10.740;2022-09-03T07:15:33;15.80;99.90
9403;DHT22;4741;49.834;10.740;2022-09-03T07:17:59;15.90;99.90
9403;DHT22;4741;49.834;10.740;2022-09-03T07:20:26;16.40;99.90
9403;DHT22;4741;49.834;10.740;2022-09-03T07:25:21;16.00;99.90
9403;DHT22;4741;49.834;10.740;2022-09-03T07:27:47;17.00;99.90
9403;DHT22;4741;49.834;10.740;2022-09-03T07:30:16;16.00;99.90
9403;DHT22;4741;49.834;10.740;2022-09-03T07:32:48;16.10;99.90
9403;DHT22;4741;49.834;10.740;2022-09-03T07:35:16;15.00;99.90
9403;DHT22;4741;49.834;10.740;2022-09-03T07:37:47;17.60;99.90
9403;DHT22;4741;49.834;10.740;2022-09-03T07:40:13;17.50;99.90
9403;DHT22;4741;49.834;10.740;2022-09-03T07:42:44;16.50;99.90
9403;DHT22;4741;49.834;10.740;2022-09-03T07:45:19;17.40;99.90
9403;DHT22;4741;49.834;10.740;2022-09-03T07:47:46;17.30;99.90
9403;DHT22;4741;49.834;10.740;2022-09-03T07:50:15;16.70;99.90
9403;DHT22;4741;49.834;10.740;2022-09-03T07:52:42;16.80;99.90
9403;DHT22;4741;49.834;10.740;2022-09-03T07:55:09;17.50;99.90
9403;DHT22;4741;49.834;10.740;2022-09-03T07:57:36;17.10;99.90
9403;DHT22;4741;49.834;10.740;2022-09-03T08:00:03;17.30;99.90
9403;DHT22;4741;49.834;10.740;2022-09-03T08:02:40;17.20;99.90
9403;DHT22;4741;49.834;10.740;2022-09-03T08:05:16;17.30;99.90
9403;DHT22;4741;49.834;10.740;2022-09-03T08:10:17;17.50;99.90
9403;DHT22;4741;49.834;10.740;2022-09-03T08:12:43;18.50;99.90
9403;DHT22;4741;49.834;10.740;2022-09-03T08:15:10;18.70;99.90
9403;DHT22;4741;49.834;10.740;2022-09-03T08:17:37;18.10;99.90
9403;DHT22;4741;49.834;10.740;2022-09-03T08:20:04;18.60;99.90
9403;DHT22;4741;49.834;10.740;2022-09-03T08:22:34;18.10;99.90
9403;DHT22;4741;49.834;10.740;2022-09-03T08:25:01;18.20;99.90
9403;DHT22;4741;49.834;10.740;2022-09-03T08:27:28;18.30;99.90
9403;DHT22;4741;49.834;10.740;2022-09-03T08:30:02;17.80;99.90
9403;DHT22;4741;49.834;10.740;2022-09-03T08:32:37;18.60;99.90
9403;DHT22;4741;49.834;10.740;2022-09-03T08:35:05;18.60;99.90
9403;DHT22;4741;49.834;10.740;2022-09-03T08:37:31;18.60;99.90
9403;DHT22;4741;49.834;10.740;2022-09-03T08:39:58;18.60;99.90
9403;DHT22;4741;49.834;10.740;2022-09-03T08:42:27;18.90;99.90
9403;DHT22;4741;49.834;10.740;2022-09-03T08:44:59;19.00;99.90
9403;DHT22;4741;49.834;10.740;2022-09-03T08:47:29;19.20;99.90
9403;DHT22;4741;49.834;10.740;2022-09-03T09:00:09;19.80;99.90
9403;DHT22;4741;49.834;10.740;2022-09-03T09:05:30;19.90;99.90
9403;DHT22;4741;49.834;10.740;2022-09-03T09:08:09;20.00;99.90
9403;DHT22;4741;49.834;10.740;2022-09-03T09:10:43;19.90;99.90
9403;DHT22;4741;49.834;10.740;2022-09-03T09:13:16;19.90;99.90
9403;DHT22;4741;49.834;10.740;2022-09-03T09:15:47;20.00;99.90
9403;DHT22;4741;49.834;10.740;2022-09-03T09:18:19;20.30;99.90
9403;DHT22;4741;49.834;10.740;2022-09-03T09:23:35;20.70;99.90
9403;DHT22;4741;49.834;10.740;2022-09-03T09:26:05;20.80;99.90
9403;DHT22;4741;49.834;10.740;2022-09-03T09:28:33;20.80;99.90
9403;DHT22;4741;49.834;10.740;2022-09-03T09:31:01;20.90;99.90
9403;DHT22;4741;49.834;10.740;2022-09-03T09:33:30;21.20;99.90
9403;DHT22;4741;49.834;10.740;2022-09-03T09:36:04;21.20;99.90
9403;DHT22;4741;49.834;10.740;2022-09-03T09:41:12;21.20;99.90
9403;DHT22;4741;49.834;10.740;2022-09-03T09:53:58;22.80;99.90
9403;DHT22;4741;49.834;10.740;2022-09-03T10:03:57;22.00;99.90
9403;DHT22;4741;49.834;10.740;2022-09-03T10:11:37;22.70;99.90
9403;DHT22;4741;49.834;10.740;2022-09-03T10:14:19;23.50;99.90
9403;DHT22;4741;49.834;10.740;2022-09-03T10:16:49;22.50;99.90
9403;DHT22;4741;49.834;10.740;2022-09-03T10:19:20;22.80;99.90
9403;DHT22;4741;49.834;10.740;2022-09-03T10:26:48;23.40;99.90
9403;DHT22;4741;49.834;10.740;2022-09-03T10:29:22;23.90;99.90
9403;DHT22;4741;49.834;10.740;2022-09-03T10:34:45;24.40;99.90
9403;DHT22;4741;49.834;10.740;2022-09-03T10:37:18;24.80;99.90
9403;DHT22;4741;49.834;10.740;2022-09-03T10:42:34;24.90;99.90
9403;DHT22;4741;49.834;10.740;2022-09-03T10:45:07;25.10;99.90
9403;DHT22;4741;49.834;10.740;2022-09-03T10:53:01;25.60;99.90
9403;DHT22;4741;49.834;10.740;2022-09-03T11:00:42;25.90;99.90
9403;DHT22;4741;49.834;10.740;2022-09-03T11:03:28;25.70;99.90
9403;DHT22;4741;49.834;10.740;2022-09-03T11:08:36;24.30;99.90
9403;DHT22;4741;49.834;10.740;2022-09-03T11:13:34;24.60;99.90
9403;DHT22;4741;49.834;10.740;2022-09-03T11:18:31;25.20;99.90
9403;DHT22;4741;49.834;10.740;2022-09-03T11:23:33;24.20;99.90
9403;DHT22;4741;49.834;10.740;2022-09-03T11:26:06;25.30;99.90
9403;DHT22;4741;49.834;10.740;2022-09-03T11:31:04;25.70;99.90
9403;DHT22;4741;49.834;10.740;2022-09-03T11:33:32;25.80;99.90
9403;DHT22;4741;49.834;10.740;2022-09-03T11:41:00;23.60;99.90
9403;DHT22;4741;49.834;10.740;2022-09-03T11:43:32;23.80;99.90
9403;DHT22;4741;49.834;10.740;2022-09-03T11:50:54;24.90;99.90
9403;DHT22;4741;49.834;10.740;2022-09-03T11:53:22;25.10;99.90
9403;DHT22;4741;49.834;10.740;2022-09-03T11:55:52;25.20;99.90
9403;DHT22;4741;49.834;10.740;2022-09-03T12:00:49;26.10;99.90
9403;DHT22;4741;49.834;10.740;2022-09-03T12:03:20;25.50;99.90
9403;DHT22;4741;49.834;10.740;2022-09-03T12:05:51;25.40;99.90
9403;DHT22;4741;49.834;10.740;2022-09-03T12:08:46;26.00;99.90
9403;DHT22;4741;49.834;10.740;2022-09-03T12:13:55;25.40;99.90
9403;DHT22;4741;49.834;10.740;2022-09-03T12:21:20;25.60;99.90
9403;DHT22;4741;49.834;10.740;2022-09-03T12:23:48;26.20;99.90
9403;DHT22;4741;49.834;10.740;2022-09-03T12:26:15;24.50;99.90
9403;DHT22;4741;49.834;10.740;2022-09-03T12:28:44;24.40;99.90
9403;DHT22;4741;49.834;10.740;2022-09-03T12:31:27;25.30;99.90
9403;DHT22;4741;49.834;10.740;2022-09-03T12:33:59;24.60;99.90
9403;DHT22;4741;49.834;10.740;2022-09-03T12:36:35;24.40;99.90
9403;DHT22;4741;49.834;10.740;2022-09-03T12:39:15;25.10;99.90
9403;DHT22;4741;49.834;10.740;2022-09-03T12:42:01;24.10;99.90
9403;DHT22;4741;49.834;10.740;2022-09-03T12:49:51;24.60;99.90
9403;DHT22;4741;49.834;10.740;2022-09-03T12:52:24;25.10;99.90
9403;DHT22;4741;49.834;10.740;2022-09-03T12:57:20;25.90;99.90
9403;DHT22;4741;49.834;10.740;2022-09-03T12:59:48;26.70;99.90
9403;DHT22;4741;49.834;10.740;2022-09-03T13:02:19;25.70;99.90
9403;DHT22;4741;49.834;10.740;2022-09-03T13:04:47;24.60;99.90
9403;DHT22;4741;49.834;10.740;2022-09-03T13:09:41;24.50;99.90
9403;DHT22;4741;49.834;10.740;2022-09-03T13:12:19;23.80;99.90
9403;DHT22;4741;49.834;10.740;2022-09-03T13:14:46;24.10;99.90
9403;DHT22;4741;49.834;10.740;2022-09-03T13:19:51;24.50;99.90
9403;DHT22;4741;49.834;10.740;2022-09-03T13:22:38;24.90;99.90
9403;DHT22;4741;49.834;10.740;2022-09-03T13:30:27;26.50;99.90
9403;DHT22;4741;49.834;10.740;2022-09-03T13:33:00;26.50;99.90
9403;DHT22;4741;49.834;10.740;2022-09-03T13:35:29;26.70;99.90
9403;DHT22;4741;49.834;10.740;2022-09-03T13:38:19;26.80;99.90
9403;DHT22;4741;49.834;10.740;2022-09-03T13:40:48;26.30;99.90
9403;DHT22;4741;49.834;10.740;2022-09-03T13:45:45;27.50;99.90
9403;DHT22;4741;49.834;10.740;2022-09-03T13:48:18;28.40;99.90
9403;DHT22;4741;49.834;10.740;2022-09-03T13:56:06;27.00;99.90
9403;DHT22;4741;49.834;10.740;2022-09-03T13:58:44;27.00;99.90
9403;DHT22;4741;49.834;10.740;2022-09-03T14:16:29;24.10;99.90
9403;DHT22;4741;49.834;10.740;2022-09-03T14:18:58;24.00;99.90
9403;DHT22;4741;49.834;10.740;2022-09-03T14:21:28;24.80;99.90
9403;DHT22;4741;49.834;10.740;2022-09-03T14:24:07;25.10;99.90
9403;DHT22;4741;49.834;10.740;2022-09-03T14:29:14;24.50;99.90
9403;DHT22;4741;49.834;10.740;2022-09-03T14:37:33;24.80;99.90
9403;DHT22;4741;49.834;10.740;2022-09-03T14:42:28;24.50;99.90
9403;DHT22;4741;49.834;10.740;2022-09-03T14:45:01;24.20;99.90
9403;DHT22;4741;49.834;10.740;2022-09-03T14:47:36;24.50;99.90
9403;DHT22;4741;49.834;10.740;2022-09-03T15:00:13;24.00;99.90
9403;DHT22;4741;49.834;10.740;2022-09-03T15:02:49;23.80;99.90
9403;DHT22;4741;49.834;10.740;2022-09-03T15:10:37;24.10;99.90
9403;DHT22;4741;49.834;10.740;2022-09-03T15:18:25;24.20;99.90
9403;DHT22;4741;49.834;10.740;2022-09-03T15:20:53;24.00;99.90
9403;DHT22;4741;49.834;10.740;2022-09-03T15:23:24;24.30;99.90
9403;DHT22;4741;49.834;10.740;2022-09-03T15:28:54;24.10;99.90
9403;DHT22;4741;49.834;10.740;2022-09-03T15:31:36;24.30;99.90
9403;DHT22;4741;49.834;10.740;2022-09-03T15:35:09;24.40;99.90
9403;DHT22;4741;49.834;10.740;2022-09-03T15:37:07;24.70;99.90
9403;DHT22;4741;49.834;10.740;2022-09-03T15:39:36;25.70;99.90
9403;DHT22;4741;49.834;10.740;2022-09-03T15:44:35;24.60;99.90
9403;DHT22;4741;49.834;10.740;2022-09-03T15:47:11;24.50;99.90
9403;DHT22;4741;49.834;10.740;2022-09-03T15:54:40;23.60;99.90
9403;DHT22;4741;49.834;10.740;2022-09-03T15:57:10;24.50;99.90
9403;DHT22;4741;49.834;10.740;2022-09-03T16:04:55;23.30;99.90
9403;DHT22;4741;49.834;10.740;2022-09-03T16:13:01;22.90;99.90
9403;DHT22;4741;49.834;10.740;2022-09-03T16:18:02;22.70;99.90
9403;DHT22;4741;49.834;10.740;2022-09-03T16:25:54;23.10;99.90
9403;DHT22;4741;49.834;10.740;2022-09-03T16:28:30;22.60;99.90
9403;DHT22;4741;49.834;10.740;2022-09-03T16:33:34;22.30;99.90
9403;DHT22;4741;49.834;10.740;2022-09-03T16:38:42;21.80;99.90
9403;DHT22;4741;49.834;10.740;2022-09-03T16:41:14;21.40;99.90
9403;DHT22;4741;49.834;10.740;2022-09-03T16:43:45;20.90;99.90
9403;DHT22;4741;49.834;10.740;2022-09-03T16:51:27;20.40;99.90
9403;DHT22;4741;49.834;10.740;2022-09-03T16:56:53;19.70;99.90
9403;DHT22;4741;49.834;10.740;2022-09-03T17:09:44;19.00;99.90
9403;DHT22;4741;49.834;10.740;2022-09-03T17:12:23;19.10;99.90
9403;DHT22;4741;49.834;10.740;2022-09-03T17:24:45;18.20;99.90
9403;DHT22;4741;49.834;10.740;2022-09-03T17:28:21;18.30;99.90
9403;DHT22;4741;49.834;10.740;2022-09-03T17:40:42;18.20;99.90
9403;DHT22;4741;49.834;10.740;2022-09-03T17:48:43;18.10;99.90
9403;DHT22;4741;49.834;10.740;2022-09-03T17:53:48;18.00;99.90
9403;DHT22;4741;49.834;10.740;2022-09-03T17:58:48;18.10;99.90
9403;DHT22;4741;49.834;10.740;2022-09-03T18:01:18;18.10;99.90
9403;DHT22;4741;49.834;10.740;2022-09-03T18:03:54;18.00;99.90
9403;DHT22;4741;49.834;10.740;2022-09-03T18:06:55;18.10;99.90
9403;DHT22;4741;49.834;10.740;2022-09-03T18:12:08;18.10;99.90
9403;DHT22;4741;49.834;10.740;2022-09-03T18:19:54;18.20;99.90
9403;DHT22;4741;49.834;10.740;2022-09-03T18:22:47;18.30;99.90
9403;DHT22;4741;49.834;10.740;2022-09-03T18:25:34;18.20;99.90
9403;DHT22;4741;49.834;10.740;2022-09-03T18:28:22;18.20;99.90
9403;DHT22;4741;49.834;10.740;2022-09-03T18:31:11;18.20;99.90
9403;DHT22;4741;49.834;10.740;2022-09-03T18:33:57;18.20;99.90
9403;DHT22;4741;49.834;10.740;2022-09-03T18:36:43;18.10;99.90
9403;DHT22;4741;49.834;10.740;2022-09-03T18:39:28;17.80;99.90
9403;DHT22;4741;49.834;10.740;2022-09-03T18:48:20;17.80;99.90
9403;DHT22;4741;49.834;10.740;2022-09-03T18:56:42;17.70;99.90
9403;DHT22;4741;49.834;10.740;2022-09-03T19:02:28;17.70;99.90
9403;DHT22;4741;49.834;10.740;2022-09-03T19:05:18;17.60;99.90
9403;DHT22;4741;49.834;10.740;2022-09-03T19:08:13;17.60;99.90
9403;DHT22;4741;49.834;10.740;2022-09-03T19:11:19;17.50;99.90
9403;DHT22;4741;49.834;10.740;2022-09-03T19:14:11;17.40;99.90
9403;DHT22;4741;49.834;10.740;2022-09-03T19:17:04;17.40;99.90
9403;DHT22;4741;49.834;10.740;2022-09-03T19:22:39;17.30;99.90
9403;DHT22;4741;49.834;10.740;2022-09-03T19:28:14;17.20;99.90
9403;DHT22;4741;49.834;10.740;2022-09-03T19:34:02;17.00;99.90
9403;DHT22;4741;49.834;10.740;2022-09-03T19:45:28;16.70;99.90
9403;DHT22;4741;49.834;10.740;2022-09-03T19:51:08;16.80;99.90
9403;DHT22;4741;49.834;10.740;2022-09-03T19:53:56;16.50;99.90
9403;DHT22;4741;49.834;10.740;2022-09-03T19:56:42;16.60;99.90
9403;DHT22;4741;49.834;10.740;2022-09-03T19:59:28;16.70;99.90
9403;DHT22;4741;49.834;10.740;2022-09-03T20:02:17;16.50;99.90
9403;DHT22;4741;49.834;10.740;2022-09-03T20:05:03;16.50;99.90
9403;DHT22;4741;49.834;10.740;2022-09-03T20:07:51;16.80;99.90
9403;DHT22;4741;49.834;10.740;2022-09-03T20:10:38;16.60;99.90
9403;DHT22;4741;49.834;10.740;2022-09-03T20:13:11;16.70;99.90
9403;DHT22;4741;49.834;10.740;2022-09-03T20:20:54;16.50;99.90
9403;DHT22;4741;49.834;10.740;2022-09-03T20:23:34;16.60;99.90
9403;DHT22;4741;49.834;10.740;2022-09-03T20:26:23;16.60;99.90
9403;DHT22;4741;49.834;10.740;2022-09-03T20:31:23;16.50;99.90
9403;DHT22;4741;49.834;10.740;2022-09-03T20:39:13;16.40;99.90
9403;DHT22;4741;49.834;10.740;2022-09-03T20:44:33;16.40;99.90
9403;DHT22;4741;49.834;10.740;2022-09-03T20:50:07;16.40;99.90
9403;DHT22;4741;49.834;10.740;2022-09-03T21:00:22;16.30;99.90
9403;DHT22;4741;49.834;10.740;2022-09-03T21:03:11;16.30;99.90
9403;DHT22;4741;49.834;10.740;2022-09-03T21:05:42;16.20;99.90
9403;DHT22;4741;49.834;10.740;2022-09-03T21:10:55;16.10;99.90
9403;DHT22;4741;49.834;10.740;2022-09-03T21:13:27;16.00;99.90
9403;DHT22;4741;49.834;10.740;2022-09-03T21:16:17;16.00;99.90
9403;DHT22;4741;49.834;10.740;2022-09-03T21:24:25;16.00;99.90
9403;DHT22;4741;49.834;10.740;2022-09-03T21:26:58;15.90;99.90
9403;DHT22;4741;49.834;10.740;2022-09-03T21:29:31;15.90;99.90
9403;DHT22;4741;49.834;10.740;2022-09-03T21:32:05;15.80;99.90
9403;DHT22;4741;49.834;10.740;2022-09-03T21:37:19;15.70;99.90
9403;DHT22;4741;49.834;10.740;2022-09-03T21:39:49;15.70;99.90
9403;DHT22;4741;49.834;10.740;2022-09-03T21:47:36;15.70;99.90
9403;DHT22;4741;49.834;10.740;2022-09-03T21:50:27;15.60;99.90
9403;DHT22;4741;49.834;10.740;2022-09-03T21:55:21;15.60;99.90
9403;DHT22;4741;49.834;10.740;2022-09-03T21:58:12;15.60;99.90
9403;DHT22;4741;49.834;10.740;2022-09-03T22:00:35;15.60;99.90
9403;DHT22;4741;49.834;10.740;2022-09-03T22:03:02;15.50;99.90
9403;DHT22;4741;49.834;10.740;2022-09-03T22:05:39;15.40;99.90
9403;DHT22;4741;49.834;10.740;2022-09-03T22:08:25;15.40;99.90
9403;DHT22;4741;49.834;10.740;2022-09-03T22:11:01;15.20;99.90
9403;DHT22;4741;49.834;10.740;2022-09-03T22:13:43;15.10;99.90
9403;DHT22;4741;49.834;10.740;2022-09-03T22:16:27;14.90;99.90
9403;DHT22;4741;49.834;10.740;2022-09-03T22:18:57;14.90;99.90
9403;DHT22;4741;49.834;10.740;2022-09-03T22:21:29;14.90;99.90
9403;DHT22;4741;49.834;10.740;2022-09-03T22:26:43;15.00;99.90
9403;DHT22;4741;49.834;10.740;2022-09-03T22:31:41;15.00;99.90
9403;DHT22;4741;49.834;10.740;2022-09-03T22:36:50;14.90;99.90
9403;DHT22;4741;49.834;10.740;2022-09-03T22:39:29;15.00;99.90
9403;DHT22;4741;49.834;10.740;2022-09-03T22:49:40;14.80;99.90
9403;DHT22;4741;49.834;10.740;2022-09-03T22:54:42;14.80;99.90
9403;DHT22;4741;49.834;10.740;2022-09-03T22:57:11;14.80;99.90
9403;DHT22;4741;49.834;10.740;2022-09-03T22:59:50;14.80;99.90
9403;DHT22;4741;49.834;10.740;2022-09-03T23:02:21;14.70;99.90
9403;DHT22;4741;49.834;10.740;2022-09-03T23:07:21;14.70;99.90
9403;DHT22;4741;49.834;10.740;2022-09-03T23:09:51;14.40;99.90
9403;DHT22;4741;49.834;10.740;2022-09-03T23:15:22;14.00;99.90
9403;DHT22;4741;49.834;10.740;2022-09-03T23:18:08;13.90;99.90
9403;DHT22;4741;49.834;10.740;2022-09-03T23:20:37;13.80;99.90
9403;DHT22;4741;49.834;10.740;2022-09-03T23:23:14;13.90;99.90
9403;DHT22;4741;49.834;10.740;2022-09-03T23:25:44;13.90;99.90
9403;DHT22;4741;49.834;10.740;2022-09-03T23:28:18;13.90;99.90
9403;DHT22;4741;49.834;10.740;2022-09-03T23:30:47;13.90;99.90
9403;DHT22;4741;49.834;10.740;2022-09-03T23:33:14;13.90;99.90
9403;DHT22;4741;49.834;10.740;2022-09-03T23:35:50;13.80;99.90
9403;DHT22;4741;49.834;10.740;2022-09-03T23:38:26;14.00;99.90
9403;DHT22;4741;49.834;10.740;2022-09-03T23:40:55;14.00;99.90
9403;DHT22;4741;49.834;10.740;2022-09-03T23:46:19;13.80;99.90
9403;DHT22;4741;49.834;10.740;2022-09-03T23:49:13;13.80;99.90
9403;DHT22;4741;49.834;10.740;2022-09-03T23:51:44;13.90;99.90
9403;DHT22;4741;49.834;10.740;2022-09-03T23:56:59;13.70;99.90
9403;DHT22;4741;49.834;10.740;2022-09-03T23:59:41;13.50;99.90
